sensor_id;sensor_type;location;lat;lon;timestamp;temperature;humidity
9772;DHT22;4925;52.588;13.370;2023-06-10T00:01:24;17.50;99.90
9772;DHT22;4925;52.588;13.370;2023-06-10T00:03:50;17.60;99.90
9772;DHT22;4925;52.588;13.370;2023-06-10T00:06:17;17.60;99.90
9772;DHT22;4925;52.588;13.370;2023-06-10T00:08:43;17.50;99.90
9772;DHT22;4925;52.588;13.370;2023-06-10T00:11:09;17.50;99.90
9772;DHT22;4925;52.588;13.370;2023-06-10T00:13:35;17.40;99.90
9772;DHT22;4925;52.588;13.370;2023-06-10T00:16:02;17.40;99.90
9772;DHT22;4925;52.588;13.370;2023-06-10T00:18:28;17.40;99.90
9772;DHT22;4925;52.588;13.370;2023-06-10T00:20:57;17.40;99.90
9772;DHT22;4925;52.588;13.370;2023-06-10T00:23:22;17.40;99.90
9772;DHT22;4925;52.588;13.370;2023-06-10T00:25:50;17.30;99.90
9772;DHT22;4925;52.588;13.370;2023-06-10T00:28:16;17.30;99.90
9772;DHT22;4925;52.588;13.370;2023-06-10T00:30:41;17.30;99.90
9772;DHT22;4925;52.588;13.370;2023-06-10T00:33:07;17.30;99.90
9772;DHT22;4925;52.588;13.370;2023-06-10T00:35:33;17.30;99.90
9772;DHT22;4925;52.588;13.370;2023-06-10T00:37:58;17.10;99.90
9772;DHT22;4925;52.588;13.370;2023-06-10T00:40:24;17.10;99.90
9772;DHT22;4925;52.588;13.370;2023-06-10T00:42:50;17.00;99.90
9772;DHT22;4925;52.588;13.370;2023-06-10T00:45:15;17.10;99.90
9772;DHT22;4925;52.588;13.370;2023-06-10T00:47:41;17.00;99.90
9772;DHT22;4925;52.588;13.370;2023-06-10T00:50:07;17.00;99.90
9772;DHT22;4925;52.588;13.370;2023-06-10T00:52:33;17.00;99.90
9772;DHT22;4925;52.588;13.370;2023-06-10T00:55:00;17.00;99.90
9772;DHT22;4925;52.588;13.370;2023-06-10T00:57:26;17.00;99.90
9772;DHT22;4925;52.588;13.370;2023-06-10T00:59:53;17.00;99.90
9772;DHT22;4925;52.588;13.370;2023-06-10T01:02:19;17.00;99.90
9772;DHT22;4925;52.588;13.370;2023-06-10T01:04:45;17.10;99.90
9772;DHT22;4925;52.588;13.370;2023-06-10T01:07:31;17.00;99.90
9772;DHT22;4925;52.588;13.370;2023-06-10T01:10:11;17.00;99.90
9772;DHT22;4925;52.588;13.370;2023-06-10T01:12:49;16.90;99.90
9772;DHT22;4925;52.588;13.370;2023-06-10T01:15:18;16.90;99.90
9772;DHT22;4925;52.588;13.370;2023-06-10T01:18:13;16.90;99.90
9772;DHT22;4925;52.588;13.370;2023-06-10T01:20:41;16.80;99.90
9772;DHT22;4925;52.588;13.370;2023-06-10T01:23:10;16.90;99.90
9772;DHT22;4925;52.588;13.370;2023-06-10T01:25:41;16.70;99.90
9772;DHT22;4925;52.588;13.370;2023-06-10T01:28:30;16.80;99.90
9772;DHT22;4925;52.588;13.370;2023-06-10T01:33:46;16.70;99.90
9772;DHT22;4925;52.588;13.370;2023-06-10T01:36:13;16.80;99.90
9772;DHT22;4925;52.588;13.370;2023-06-10T01:38:43;16.80;99.90
9772;DHT22;4925;52.588;13.370;2023-06-10T01:41:11;16.70;99.90
9772;DHT22;4925;52.588;13.370;2023-06-10T01:43:38;16.80;99.90
9772;DHT22;4925;52.588;13.370;2023-06-10T01:46:04;16.70;99.90
9772;DHT22;4925;52.588;13.370;2023-06-10T01:48:30;16.70;99.90
9772;DHT22;4925;52.588;13.370;2023-06-10T01:50:55;16.60;99.90
9772;DHT22;4925;52.588;13.370;2023-06-10T01:53:22;16.50;99.90
9772;DHT22;4925;52.588;13.370;2023-06-10T01:55:48;16.50;99.90
9772;DHT22;4925;52.588;13.370;2023-06-10T01:58:14;16.50;99.90
9772;DHT22;4925;52.588;13.370;2023-06-10T02:00:39;16.50;99.90
9772;DHT22;4925;52.588;13.370;2023-06-10T02:03:05;16.40;99.90
9772;DHT22;4925;52.588;13.370;2023-06-10T02:05:31;16.30;99.90
9772;DHT22;4925;52.588;13.370;2023-06-10T02:07:57;16.30;99.90
9772;DHT22;4925;52.588;13.370;2023-06-10T02:10:23;16.30;99.90
9772;DHT22;4925;52.588;13.370;2023-06-10T02:12:48;16.30;99.90
9772;DHT22;4925;52.588;13.370;2023-06-10T02:15:14;16.30;99.90
9772;DHT22;4925;52.588;13.370;2023-06-10T02:17:40;16.20;99.90
9772;DHT22;4925;52.588;13.370;2023-06-10T02:20:06;16.20;99.90
9772;DHT22;4925;52.588;13.370;2023-06-10T02:22:32;16.20;99.90
9772;DHT22;4925;52.588;13.370;2023-06-10T02:24:58;16.20;99.90
9772;DHT22;4925;52.588;13.370;2023-06-10T02:27:24;16.20;99.90
9772;DHT22;4925;52.588;13.370;2023-06-10T02:29:50;16.20;99.90
9772;DHT22;4925;52.588;13.370;2023-06-10T02:32:16;16.20;99.90
9772;DHT22;4925;52.588;13.370;2023-06-10T02:34:42;16.20;99.90
9772;DHT22;4925;52.588;13.370;2023-06-10T02:37:11;16.20;99.90
9772;DHT22;4925;52.588;13.370;2023-06-10T02:39:37;16.30;99.90
9772;DHT22;4925;52.588;13.370;2023-06-10T02:42:02;16.20;99.90
9772;DHT22;4925;52.588;13.370;2023-06-10T02:44:28;16.20;99.90
9772;DHT22;4925;52.588;13.370;2023-06-10T02:46:54;16.20;99.90
9772;DHT22;4925;52.588;13.370;2023-06-10T02:49:19;16.10;99.90
9772;DHT22;4925;52.588;13.370;2023-06-10T02:51:45;16.10;99.90
9772;DHT22;4925;52.588;13.370;2023-06-10T02:54:10;16.10;99.90
9772;DHT22;4925;52.588;13.370;2023-06-10T02:56:36;16.00;99.90
9772;DHT22;4925;52.588;13.370;2023-06-10T02:59:02;16.00;99.90
9772;DHT22;4925;52.588;13.370;2023-06-10T03:01:28;16.00;99.90
9772;DHT22;4925;52.588;13.370;2023-06-10T03:03:54;16.00;99.90
9772;DHT22;4925;52.588;13.370;2023-06-10T03:06:21;16.00;99.90
9772;DHT22;4925;52.588;13.370;2023-06-10T03:08:50;16.00;99.90
9772;DHT22;4925;52.588;13.370;2023-06-10T03:11:15;16.00;99.90
9772;DHT22;4925;52.588;13.370;2023-06-10T03:13:41;16.00;99.90
9772;DHT22;4925;52.588;13.370;2023-06-10T03:16:06;16.00;99.90
9772;DHT22;4925;52.588;13.370;2023-06-10T03:18:33;16.00;99.90
9772;DHT22;4925;52.588;13.370;2023-06-10T03:20:58;16.00;99.90
9772;DHT22;4925;52.588;13.370;2023-06-10T03:23:24;16.10;99.90
9772;DHT22;4925;52.588;13.370;2023-06-10T03:25:50;16.10;99.90
9772;DHT22;4925;52.588;13.370;2023-06-10T03:28:15;16.10;99.90
9772;DHT22;4925;52.588;13.370;2023-06-10T03:30:41;16.00;99.90
9772;DHT22;4925;52.588;13.370;2023-06-10T03:33:07;16.00;99.90
9772;DHT22;4925;52.588;13.370;2023-06-10T03:35:32;16.10;99.90
9772;DHT22;4925;52.588;13.370;2023-06-10T03:38:00;16.10;99.90
9772;DHT22;4925;52.588;13.370;2023-06-10T03:40:25;16.00;99.90
9772;DHT22;4925;52.588;13.370;2023-06-10T03:42:51;16.00;99.90
9772;DHT22;4925;52.588;13.370;2023-06-10T03:45:17;16.00;99.90
9772;DHT22;4925;52.588;13.370;2023-06-10T03:47:43;16.00;99.90
9772;DHT22;4925;52.588;13.370;2023-06-10T03:50:09;16.00;99.90
9772;DHT22;4925;52.588;13.370;2023-06-10T03:52:36;16.10;99.90
9772;DHT22;4925;52.588;13.370;2023-06-10T03:55:02;16.10;99.90
9772;DHT22;4925;52.588;13.370;2023-06-10T03:57:27;16.10;99.90
9772;DHT22;4925;52.588;13.370;2023-06-10T03:59:54;16.10;99.90
9772;DHT22;4925;52.588;13.370;2023-06-10T04:02:20;16.10;99.90
9772;DHT22;4925;52.588;13.370;2023-06-10T04:04:46;16.20;99.90
9772;DHT22;4925;52.588;13.370;2023-06-10T04:07:12;16.20;99.90
9772;DHT22;4925;52.588;13.370;2023-06-10T04:09:39;16.30;99.90
9772;DHT22;4925;52.588;13.370;2023-06-10T04:12:05;16.40;99.90
9772;DHT22;4925;52.588;13.370;2023-06-10T04:14:34;16.40;99.90
9772;DHT22;4925;52.588;13.370;2023-06-10T04:17:02;16.40;99.90
9772;DHT22;4925;52.588;13.370;2023-06-10T04:19:28;16.40;99.90
9772;DHT22;4925;52.588;13.370;2023-06-10T04:21:54;16.40;99.90
9772;DHT22;4925;52.588;13.370;2023-06-10T04:24:19;16.40;99.90
9772;DHT22;4925;52.588;13.370;2023-06-10T04:26:45;16.40;99.90
9772;DHT22;4925;52.588;13.370;2023-06-10T04:29:11;16.40;99.90
9772;DHT22;4925;52.588;13.370;2023-06-10T04:31:37;16.50;99.90
9772;DHT22;4925;52.588;13.370;2023-06-10T04:34:02;16.60;99.90
9772;DHT22;4925;52.588;13.370;2023-06-10T04:36:28;16.60;99.90
9772;DHT22;4925;52.588;13.370;2023-06-10T04:38:55;16.60;99.90
9772;DHT22;4925;52.588;13.370;2023-06-10T04:41:21;16.70;99.90
9772;DHT22;4925;52.588;13.370;2023-06-10T04:43:47;16.70;99.90
9772;DHT22;4925;52.588;13.370;2023-06-10T04:46:13;16.70;99.90
9772;DHT22;4925;52.588;13.370;2023-06-10T04:48:39;16.70;99.90
9772;DHT22;4925;52.588;13.370;2023-06-10T04:51:05;16.70;99.90
9772;DHT22;4925;52.588;13.370;2023-06-10T04:53:31;16.80;99.90
9772;DHT22;4925;52.588;13.370;2023-06-10T04:55:57;16.80;99.90
9772;DHT22;4925;52.588;13.370;2023-06-10T04:58:23;16.90;99.90
9772;DHT22;4925;52.588;13.370;2023-06-10T05:00:49;17.00;99.90
9772;DHT22;4925;52.588;13.370;2023-06-10T05:03:14;17.20;99.90
9772;DHT22;4925;52.588;13.370;2023-06-10T05:05:40;17.30;99.90
9772;DHT22;4925;52.588;13.370;2023-06-10T05:08:06;17.20;99.90
9772;DHT22;4925;52.588;13.370;2023-06-10T05:10:31;17.30;99.90
9772;DHT22;4925;52.588;13.370;2023-06-10T05:12:58;17.40;99.90
9772;DHT22;4925;52.588;13.370;2023-06-10T05:15:24;17.50;99.90
9772;DHT22;4925;52.588;13.370;2023-06-10T05:17:50;17.50;99.90
9772;DHT22;4925;52.588;13.370;2023-06-10T05:20:15;17.50;99.90
9772;DHT22;4925;52.588;13.370;2023-06-10T05:22:41;17.60;99.90
9772;DHT22;4925;52.588;13.370;2023-06-10T05:25:07;17.60;99.90
9772;DHT22;4925;52.588;13.370;2023-06-10T05:27:33;17.70;99.90
9772;DHT22;4925;52.588;13.370;2023-06-10T05:29:58;17.80;99.90
9772;DHT22;4925;52.588;13.370;2023-06-10T05:32:24;18.00;99.90
9772;DHT22;4925;52.588;13.370;2023-06-10T05:34:50;18.10;99.90
9772;DHT22;4925;52.588;13.370;2023-06-10T05:37:16;18.30;99.90
9772;DHT22;4925;52.588;13.370;2023-06-10T05:39:41;18.40;99.90
9772;DHT22;4925;52.588;13.370;2023-06-10T05:42:07;18.60;99.90
9772;DHT22;4925;52.588;13.370;2023-06-10T05:44:34;18.70;99.90
9772;DHT22;4925;52.588;13.370;2023-06-10T05:47:00;18.80;99.90
9772;DHT22;4925;52.588;13.370;2023-06-10T05:49:25;18.90;99.90
9772;DHT22;4925;52.588;13.370;2023-06-10T05:51:51;19.10;99.90
9772;DHT22;4925;52.588;13.370;2023-06-10T05:54:18;19.20;99.90
9772;DHT22;4925;52.588;13.370;2023-06-10T05:56:44;19.30;99.90
9772;DHT22;4925;52.588;13.370;2023-06-10T05:59:10;19.40;99.90
9772;DHT22;4925;52.588;13.370;2023-06-10T06:01:35;19.50;99.90
9772;DHT22;4925;52.588;13.370;2023-06-10T06:04:01;19.60;99.90
9772;DHT22;4925;52.588;13.370;2023-06-10T06:06:28;19.70;99.90
9772;DHT22;4925;52.588;13.370;2023-06-10T06:08:53;19.80;99.90
9772;DHT22;4925;52.588;13.370;2023-06-10T06:11:19;19.90;99.90
9772;DHT22;4925;52.588;13.370;2023-06-10T06:13:45;20.00;99.90
9772;DHT22;4925;52.588;13.370;2023-06-10T06:16:10;20.10;99.90
9772;DHT22;4925;52.588;13.370;2023-06-10T06:18:36;20.30;99.90
9772;DHT22;4925;52.588;13.370;2023-06-10T06:21:02;20.40;99.90
9772;DHT22;4925;52.588;13.370;2023-06-10T06:23:29;20.40;99.90
9772;DHT22;4925;52.588;13.370;2023-06-10T06:25:55;20.40;99.90
9772;DHT22;4925;52.588;13.370;2023-06-10T06:28:21;20.50;99.90
9772;DHT22;4925;52.588;13.370;2023-06-10T06:30:48;20.60;99.90
9772;DHT22;4925;52.588;13.370;2023-06-10T06:33:13;20.60;99.90
9772;DHT22;4925;52.588;13.370;2023-06-10T06:35:39;20.70;99.90
9772;DHT22;4925;52.588;13.370;2023-06-10T06:38:05;20.80;99.90
9772;DHT22;4925;52.588;13.370;2023-06-10T06:40:31;20.90;99.90
9772;DHT22;4925;52.588;13.370;2023-06-10T06:42:57;20.90;99.90
9772;DHT22;4925;52.588;13.370;2023-06-10T06:45:22;21.00;99.90
9772;DHT22;4925;52.588;13.370;2023-06-10T06:47:48;21.00;99.90
9772;DHT22;4925;52.588;13.370;2023-06-10T06:50:13;21.20;99.90
9772;DHT22;4925;52.588;13.370;2023-06-10T06:52:39;21.30;99.90
9772;DHT22;4925;52.588;13.370;2023-06-10T06:55:07;21.40;99.90
9772;DHT22;4925;52.588;13.370;2023-06-10T06:57:32;21.40;99.90
9772;DHT22;4925;52.588;13.370;2023-06-10T06:59:58;21.60;99.90
9772;DHT22;4925;52.588;13.370;2023-06-10T07:02:24;21.70;99.90
9772;DHT22;4925;52.588;13.370;2023-06-10T07:04:50;21.70;99.90
9772;DHT22;4925;52.588;13.370;2023-06-10T07:07:16;21.70;99.90
9772;DHT22;4925;52.588;13.370;2023-06-10T07:09:41;21.90;99.90
9772;DHT22;4925;52.588;13.370;2023-06-10T07:12:07;22.00;99.90
9772;DHT22;4925;52.588;13.370;2023-06-10T07:14:33;22.10;99.90
9772;DHT22;4925;52.588;13.370;2023-06-10T07:16:59;22.20;99.90
9772;DHT22;4925;52.588;13.370;2023-06-10T07:19:25;22.30;99.90
9772;DHT22;4925;52.588;13.370;2023-06-10T07:21:50;22.50;99.90
9772;DHT22;4925;52.588;13.370;2023-06-10T07:24:16;22.60;99.90
9772;DHT22;4925;52.588;13.370;2023-06-10T07:26:42;22.80;99.90
9772;DHT22;4925;52.588;13.370;2023-06-10T07:29:07;23.00;99.90
9772;DHT22;4925;52.588;13.370;2023-06-10T07:31:33;23.30;99.90
9772;DHT22;4925;52.588;13.370;2023-06-10T07:33:59;23.40;99.90
9772;DHT22;4925;52.588;13.370;2023-06-10T07:36:25;23.50;99.90
9772;DHT22;4925;52.588;13.370;2023-06-10T07:38:54;23.70;99.90
9772;DHT22;4925;52.588;13.370;2023-06-10T07:41:20;23.80;99.90
9772;DHT22;4925;52.588;13.370;2023-06-10T07:43:46;23.90;99.90
9772;DHT22;4925;52.588;13.370;2023-06-10T07:46:11;23.90;99.90
9772;DHT22;4925;52.588;13.370;2023-06-10T07:48:37;24.00;99.90
9772;DHT22;4925;52.588;13.370;2023-06-10T07:51:03;24.00;99.90
9772;DHT22;4925;52.588;13.370;2023-06-10T07:53:28;24.00;99.90
9772;DHT22;4925;52.588;13.370;2023-06-10T07:55:54;24.00;99.90
9772;DHT22;4925;52.588;13.370;2023-06-10T07:58:20;24.20;99.90
9772;DHT22;4925;52.588;13.370;2023-06-10T08:00:47;24.20;99.90
9772;DHT22;4925;52.588;13.370;2023-06-10T08:03:12;24.30;99.90
9772;DHT22;4925;52.588;13.370;2023-06-10T08:05:39;24.30;99.90
9772;DHT22;4925;52.588;13.370;2023-06-10T08:08:05;24.30;99.90
9772;DHT22;4925;52.588;13.370;2023-06-10T08:10:31;24.30;99.90
9772;DHT22;4925;52.588;13.370;2023-06-10T08:12:57;24.30;99.90
9772;DHT22;4925;52.588;13.370;2023-06-10T08:15:22;24.40;99.90
9772;DHT22;4925;52.588;13.370;2023-06-10T08:17:48;24.40;99.90
9772;DHT22;4925;52.588;13.370;2023-06-10T08:20:14;24.40;99.90
9772;DHT22;4925;52.588;13.370;2023-06-10T08:22:40;24.50;99.90
9772;DHT22;4925;52.588;13.370;2023-06-10T08:25:06;24.70;99.90
9772;DHT22;4925;52.588;13.370;2023-06-10T08:27:31;24.80;99.90
9772;DHT22;4925;52.588;13.370;2023-06-10T08:29:57;25.00;99.90
9772;DHT22;4925;52.588;13.370;2023-06-10T08:32:24;25.00;99.90
9772;DHT22;4925;52.588;13.370;2023-06-10T08:34:50;24.90;99.90
9772;DHT22;4925;52.588;13.370;2023-06-10T08:37:15;24.90;99.90
9772;DHT22;4925;52.588;13.370;2023-06-10T08:39:41;24.80;99.90
9772;DHT22;4925;52.588;13.370;2023-06-10T08:42:32;24.90;99.90
9772;DHT22;4925;52.588;13.370;2023-06-10T08:45:01;24.70;99.90
9772;DHT22;4925;52.588;13.370;2023-06-10T08:47:29;24.50;99.90
9772;DHT22;4925;52.588;13.370;2023-06-10T08:49:57;24.30;99.90
9772;DHT22;4925;52.588;13.370;2023-06-10T08:52:34;24.30;99.90
9772;DHT22;4925;52.588;13.370;2023-06-10T08:55:12;24.30;99.90
9772;DHT22;4925;52.588;13.370;2023-06-10T08:57:43;24.30;99.90
9772;DHT22;4925;52.588;13.370;2023-06-10T09:00:11;24.30;99.90
9772;DHT22;4925;52.588;13.370;2023-06-10T09:02:38;24.30;99.90
9772;DHT22;4925;52.588;13.370;2023-06-10T09:05:04;24.10;99.90
9772;DHT22;4925;52.588;13.370;2023-06-10T09:07:35;24.00;99.90
9772;DHT22;4925;52.588;13.370;2023-06-10T09:10:02;23.90;99.90
9772;DHT22;4925;52.588;13.370;2023-06-10T09:12:29;23.90;99.90
9772;DHT22;4925;52.588;13.370;2023-06-10T09:14:55;23.90;99.90
9772;DHT22;4925;52.588;13.370;2023-06-10T09:17:21;23.90;99.90
9772;DHT22;4925;52.588;13.370;2023-06-10T09:19:47;23.80;99.90
9772;DHT22;4925;52.588;13.370;2023-06-10T09:22:13;23.80;99.90
9772;DHT22;4925;52.588;13.370;2023-06-10T09:24:39;23.70;99.90
9772;DHT22;4925;52.588;13.370;2023-06-10T09:27:07;23.70;99.90
9772;DHT22;4925;52.588;13.370;2023-06-10T09:29:52;23.70;99.90
9772;DHT22;4925;52.588;13.370;2023-06-10T09:32:19;23.80;99.90
9772;DHT22;4925;52.588;13.370;2023-06-10T09:34:45;23.70;99.90
9772;DHT22;4925;52.588;13.370;2023-06-10T09:37:11;23.60;99.90
9772;DHT22;4925;52.588;13.370;2023-06-10T09:39:39;23.60;99.90
9772;DHT22;4925;52.588;13.370;2023-06-10T09:42:18;23.50;99.90
9772;DHT22;4925;52.588;13.370;2023-06-10T09:44:51;23.50;99.90
9772;DHT22;4925;52.588;13.370;2023-06-10T09:47:21;23.40;99.90
9772;DHT22;4925;52.588;13.370;2023-06-10T09:49:51;23.40;99.90
9772;DHT22;4925;52.588;13.370;2023-06-10T09:52:28;23.40;99.90
9772;DHT22;4925;52.588;13.370;2023-06-10T09:55:01;23.40;99.90
9772;DHT22;4925;52.588;13.370;2023-06-10T09:57:31;23.50;99.90
9772;DHT22;4925;52.588;13.370;2023-06-10T09:59:58;23.40;99.90
9772;DHT22;4925;52.588;13.370;2023-06-10T10:02:24;23.50;99.90
9772;DHT22;4925;52.588;13.370;2023-06-10T10:04:50;23.50;99.90
9772;DHT22;4925;52.588;13.370;2023-06-10T10:07:15;23.50;99.90
9772;DHT22;4925;52.588;13.370;2023-06-10T10:09:42;23.40;99.90
9772;DHT22;4925;52.588;13.370;2023-06-10T10:12:10;23.30;99.90
9772;DHT22;4925;52.588;13.370;2023-06-10T10:14:37;23.10;99.90
9772;DHT22;4925;52.588;13.370;2023-06-10T10:17:06;23.10;99.90
9772;DHT22;4925;52.588;13.370;2023-06-10T10:19:38;23.10;99.90
9772;DHT22;4925;52.588;13.370;2023-06-10T10:22:08;23.10;99.90
9772;DHT22;4925;52.588;13.370;2023-06-10T10:24:44;23.10;99.90
9772;DHT22;4925;52.588;13.370;2023-06-10T10:27:18;23.20;99.90
9772;DHT22;4925;52.588;13.370;2023-06-10T10:29:51;23.20;99.90
9772;DHT22;4925;52.588;13.370;2023-06-10T10:32:18;23.30;99.90
9772;DHT22;4925;52.588;13.370;2023-06-10T10:34:49;23.20;99.90
9772;DHT22;4925;52.588;13.370;2023-06-10T10:37:18;23.30;99.90
9772;DHT22;4925;52.588;13.370;2023-06-10T10:39:45;23.30;99.90
9772;DHT22;4925;52.588;13.370;2023-06-10T10:42:12;23.30;99.90
9772;DHT22;4925;52.588;13.370;2023-06-10T10:44:39;23.30;99.90
9772;DHT22;4925;52.588;13.370;2023-06-10T10:47:08;23.30;99.90
9772;DHT22;4925;52.588;13.370;2023-06-10T10:49:37;23.30;99.90
9772;DHT22;4925;52.588;13.370;2023-06-10T10:52:04;23.20;99.90
9772;DHT22;4925;52.588;13.370;2023-06-10T10:54:34;23.30;99.90
9772;DHT22;4925;52.588;13.370;2023-06-10T10:57:10;23.30;99.90
9772;DHT22;4925;52.588;13.370;2023-06-10T11:05:01;23.40;99.90
9772;DHT22;4925;52.588;13.370;2023-06-10T11:07:32;23.40;99.90
9772;DHT22;4925;52.588;13.370;2023-06-10T11:12:50;23.00;99.90
9772;DHT22;4925;52.588;13.370;2023-06-10T11:15:24;23.00;99.90
9772;DHT22;4925;52.588;13.370;2023-06-10T11:18:12;23.10;99.90
9772;DHT22;4925;52.588;13.370;2023-06-10T11:31:49;23.90;99.90
9772;DHT22;4925;52.588;13.370;2023-06-10T11:34:20;24.10;99.90
9772;DHT22;4925;52.588;13.370;2023-06-10T11:36:49;24.20;99.90
9772;DHT22;4925;52.588;13.370;2023-06-10T11:39:15;24.30;99.90
9772;DHT22;4925;52.588;13.370;2023-06-10T11:41:40;24.40;99.90
9772;DHT22;4925;52.588;13.370;2023-06-10T11:44:11;24.70;99.90
9772;DHT22;4925;52.588;13.370;2023-06-10T11:46:37;25.30;99.90
9772;DHT22;4925;52.588;13.370;2023-06-10T11:49:04;25.80;99.90
9772;DHT22;4925;52.588;13.370;2023-06-10T11:51:39;26.40;99.90
9772;DHT22;4925;52.588;13.370;2023-06-10T11:54:08;26.80;99.90
9772;DHT22;4925;52.588;13.370;2023-06-10T11:56:34;27.20;99.90
9772;DHT22;4925;52.588;13.370;2023-06-10T11:59:04;27.70;99.90
9772;DHT22;4925;52.588;13.370;2023-06-10T12:01:32;28.20;99.90
9772;DHT22;4925;52.588;13.370;2023-06-10T12:04:00;28.60;99.80
9772;DHT22;4925;52.588;13.370;2023-06-10T12:06:26;29.30;98.80
9772;DHT22;4925;52.588;13.370;2023-06-10T12:08:53;29.90;96.10
9772;DHT22;4925;52.588;13.370;2023-06-10T12:11:19;30.10;93.70
9772;DHT22;4925;52.588;13.370;2023-06-10T12:13:47;30.50;91.10
9772;DHT22;4925;52.588;13.370;2023-06-10T12:16:16;30.60;88.30
9772;DHT22;4925;52.588;13.370;2023-06-10T12:18:46;31.00;86.20
9772;DHT22;4925;52.588;13.370;2023-06-10T12:21:24;31.50;84.70
9772;DHT22;4925;52.588;13.370;2023-06-10T12:26:35;32.10;76.20
9772;DHT22;4925;52.588;13.370;2023-06-10T12:29:23;32.50;70.80
9772;DHT22;4925;52.588;13.370;2023-06-10T12:32:01;32.90;61.40
9772;DHT22;4925;52.588;13.370;2023-06-10T12:34:37;33.10;58.70
9772;DHT22;4925;52.588;13.370;2023-06-10T12:37:05;32.90;56.90
9772;DHT22;4925;52.588;13.370;2023-06-10T12:39:33;33.20;51.90
9772;DHT22;4925;52.588;13.370;2023-06-10T12:41:59;33.20;50.90
9772;DHT22;4925;52.588;13.370;2023-06-10T12:44:29;33.60;51.50
9772;DHT22;4925;52.588;13.370;2023-06-10T12:46:55;33.50;52.10
9772;DHT22;4925;52.588;13.370;2023-06-10T12:49:21;33.40;52.00
9772;DHT22;4925;52.588;13.370;2023-06-10T12:51:47;33.00;53.10
9772;DHT22;4925;52.588;13.370;2023-06-10T12:54:13;32.60;54.30
9772;DHT22;4925;52.588;13.370;2023-06-10T12:56:39;32.30;56.40
9772;DHT22;4925;52.588;13.370;2023-06-10T12:59:04;32.20;57.30
9772;DHT22;4925;52.588;13.370;2023-06-10T13:01:31;32.20;58.80
9772;DHT22;4925;52.588;13.370;2023-06-10T13:03:57;32.00;59.80
9772;DHT22;4925;52.588;13.370;2023-06-10T13:06:23;32.00;60.70
9772;DHT22;4925;52.588;13.370;2023-06-10T13:08:48;32.40;60.90
9772;DHT22;4925;52.588;13.370;2023-06-10T13:11:14;32.60;60.20
9772;DHT22;4925;52.588;13.370;2023-06-10T13:13:40;32.80;59.70
9772;DHT22;4925;52.588;13.370;2023-06-10T13:16:05;32.80;59.00
9772;DHT22;4925;52.588;13.370;2023-06-10T13:18:32;32.80;57.80
9772;DHT22;4925;52.588;13.370;2023-06-10T13:21:03;32.70;56.70
9772;DHT22;4925;52.588;13.370;2023-06-10T13:23:29;32.70;56.50
9772;DHT22;4925;52.588;13.370;2023-06-10T13:25:56;32.70;56.30
9772;DHT22;4925;52.588;13.370;2023-06-10T13:28:23;32.50;57.00
9772;DHT22;4925;52.588;13.370;2023-06-10T13:30:48;32.20;57.40
9772;DHT22;4925;52.588;13.370;2023-06-10T13:33:14;32.40;58.30
9772;DHT22;4925;52.588;13.370;2023-06-10T13:35:39;32.40;56.60
9772;DHT22;4925;52.588;13.370;2023-06-10T13:38:06;32.10;56.50
9772;DHT22;4925;52.588;13.370;2023-06-10T13:40:32;32.00;57.00
9772;DHT22;4925;52.588;13.370;2023-06-10T13:42:58;31.80;57.70
9772;DHT22;4925;52.588;13.370;2023-06-10T13:45:24;31.50;57.70
9772;DHT22;4925;52.588;13.370;2023-06-10T13:47:50;31.50;58.30
9772;DHT22;4925;52.588;13.370;2023-06-10T13:50:17;31.50;58.30
9772;DHT22;4925;52.588;13.370;2023-06-10T13:52:42;31.40;58.90
9772;DHT22;4925;52.588;13.370;2023-06-10T13:55:08;31.50;56.90
9772;DHT22;4925;52.588;13.370;2023-06-10T13:57:34;31.60;55.50
9772;DHT22;4925;52.588;13.370;2023-06-10T14:00:00;31.30;54.70
9772;DHT22;4925;52.588;13.370;2023-06-10T14:02:26;31.10;56.60
9772;DHT22;4925;52.588;13.370;2023-06-10T14:04:52;31.10;58.00
9772;DHT22;4925;52.588;13.370;2023-06-10T14:07:17;31.00;58.90
9772;DHT22;4925;52.588;13.370;2023-06-10T14:09:43;31.00;58.40
9772;DHT22;4925;52.588;13.370;2023-06-10T14:12:09;30.90;55.40
9772;DHT22;4925;52.588;13.370;2023-06-10T14:14:36;30.70;55.00
9772;DHT22;4925;52.588;13.370;2023-06-10T14:17:03;30.80;54.20
9772;DHT22;4925;52.588;13.370;2023-06-10T14:19:30;30.80;53.30
9772;DHT22;4925;52.588;13.370;2023-06-10T14:21:55;30.50;52.40
9772;DHT22;4925;52.588;13.370;2023-06-10T14:24:21;30.40;53.00
9772;DHT22;4925;52.588;13.370;2023-06-10T14:26:47;30.50;53.80
9772;DHT22;4925;52.588;13.370;2023-06-10T14:29:13;30.50;53.90
9772;DHT22;4925;52.588;13.370;2023-06-10T14:31:40;30.30;53.80
9772;DHT22;4925;52.588;13.370;2023-06-10T14:34:06;30.40;54.50
9772;DHT22;4925;52.588;13.370;2023-06-10T14:36:33;30.40;53.40
9772;DHT22;4925;52.588;13.370;2023-06-10T14:38:59;30.30;54.30
9772;DHT22;4925;52.588;13.370;2023-06-10T14:41:25;30.40;53.80
9772;DHT22;4925;52.588;13.370;2023-06-10T14:43:51;30.50;52.30
9772;DHT22;4925;52.588;13.370;2023-06-10T14:46:17;30.50;51.80
9772;DHT22;4925;52.588;13.370;2023-06-10T14:48:43;30.40;50.90
9772;DHT22;4925;52.588;13.370;2023-06-10T14:51:08;30.40;50.10
9772;DHT22;4925;52.588;13.370;2023-06-10T14:53:34;30.40;49.80
9772;DHT22;4925;52.588;13.370;2023-06-10T14:56:00;30.40;49.00
9772;DHT22;4925;52.588;13.370;2023-06-10T14:58:25;30.30;47.80
9772;DHT22;4925;52.588;13.370;2023-06-10T15:00:51;30.30;46.60
9772;DHT22;4925;52.588;13.370;2023-06-10T15:03:17;30.40;45.80
9772;DHT22;4925;52.588;13.370;2023-06-10T15:05:42;30.40;44.80
9772;DHT22;4925;52.588;13.370;2023-06-10T15:08:08;30.50;44.60
9772;DHT22;4925;52.588;13.370;2023-06-10T15:10:34;30.40;44.90
9772;DHT22;4925;52.588;13.370;2023-06-10T15:13:00;30.40;45.10
9772;DHT22;4925;52.588;13.370;2023-06-10T15:15:26;30.50;44.70
9772;DHT22;4925;52.588;13.370;2023-06-10T15:17:52;30.60;44.20
9772;DHT22;4925;52.588;13.370;2023-06-10T15:20:18;30.70;43.40
9772;DHT22;4925;52.588;13.370;2023-06-10T15:22:43;30.90;42.20
9772;DHT22;4925;52.588;13.370;2023-06-10T15:25:09;30.80;42.20
9772;DHT22;4925;52.588;13.370;2023-06-10T15:27:35;30.80;41.90
9772;DHT22;4925;52.588;13.370;2023-06-10T15:30:01;30.60;42.40
9772;DHT22;4925;52.588;13.370;2023-06-10T15:32:27;30.60;42.30
9772;DHT22;4925;52.588;13.370;2023-06-10T15:34:52;30.50;42.20
9772;DHT22;4925;52.588;13.370;2023-06-10T15:37:19;30.50;42.90
9772;DHT22;4925;52.588;13.370;2023-06-10T15:39:46;30.40;42.70
9772;DHT22;4925;52.588;13.370;2023-06-10T15:42:12;30.20;43.20
9772;DHT22;4925;52.588;13.370;2023-06-10T15:44:38;30.10;43.20
9772;DHT22;4925;52.588;13.370;2023-06-10T15:47:04;30.10;42.90
9772;DHT22;4925;52.588;13.370;2023-06-10T15:49:30;30.00;43.10
9772;DHT22;4925;52.588;13.370;2023-06-10T15:51:56;29.90;43.80
9772;DHT22;4925;52.588;13.370;2023-06-10T15:54:22;29.90;44.40
9772;DHT22;4925;52.588;13.370;2023-06-10T15:56:48;29.80;44.80
9772;DHT22;4925;52.588;13.370;2023-06-10T15:59:13;29.80;44.60
9772;DHT22;4925;52.588;13.370;2023-06-10T16:01:39;29.70;45.40
9772;DHT22;4925;52.588;13.370;2023-06-10T16:04:05;29.60;46.00
9772;DHT22;4925;52.588;13.370;2023-06-10T16:06:30;29.60;45.80
9772;DHT22;4925;52.588;13.370;2023-06-10T16:08:56;29.50;46.40